Terminal Aerodrome Forecast
Issued by NWS Louisville, KY

Home | Current Version | Previous Version | Text Only | Print | Product List | Glossary On
Versions: 1 2 3 4 5 6 7 8 9 10 11 12 13 14 15 16 17 18 19 20 21
274
FTUS43 KLMK 280357 AAA
TAFBWG
TAF AMD
KBWG 280357Z 2804/2824 VRB04KT 6SM -TSRA BR BKN080CB OVC250
      TEMPO 2804/2808 2SM -TSRA BR BKN035CB
     FM281000 21006KT 6SM BR VCSH BKN035
     FM281500 21006KT P6SM VCTS BKN035CB=

USA.gov is the U.S. government's official web portal to all federal, state and local government web resources and services.